Terminal Aerodrome Forecast
Issued by NWS

Home | Current Version | Previous Version | Text Only | Print | Product List | Glossary On
Versions: 1 2 3 4 5 6 7 8 9 10 11 12 13 14 15
000
FTUS43 KMQT 211700
TAFCMX
TAF
KCMX 211733Z 2118/2218 16006KT P6SM BKN015 OVC025
     FM212200 15013KT 4SM -SN OVC015
     FM220000 15009KT 1SM -SN OVC007
     FM220700 15009KT 3SM -SN OVC010
     FM221000 15009KT 3SM BR OVC010=

USA.gov is the U.S. government's official web portal to all federal, state and local government web resources and services.